ETNG METAR and TAF | Updated Today

ETNG METAR

Geilenkirchen Air Base

Observation time: 11:37 hr. ago

ETNG 290950Z 16002KT 9999 FEW035 SCT240 15/09 Q1002 NOSIG

Need help? Read our tutorial on how to read METARs or read the parsed version below.

Geilenkirchen Air Base (ETNG) METAR

  • Weather conditions on Thu, 29 Sep 2022 09:50:00 +0000 (11:37 hr. ago):
  • Present conditions: Dry
  • Clouds: A few at 1067 meters; scattered at 7315 meters
  • Visibility: Greater than 10 km
  • Wind: 160 degrees at 2 knots
  • Temperature: 15 celsius
  • Dew point: 9 celsius
  • Pressure: 1002 millibars
  • Remarks: None


Useful to know...

  • Codes: ETNG/GKE
  • Airport elevation: 296ft
  • Municipality:
  • Country: Germany
  • Continent: Europe

ETNG TAF

Geilenkirchen Air Base

TAF ETNG 290800Z 2909/2924 24005KT 9999 SCT030
Observation time: 13:27 hr. ago
Need help? Read our tutorial on how to read TAFs or read the parsed version below.

Parsed version of TAF for Geilenkirchen Air Base (ETNG)

  • From 29 September at 09:00 UTC, to day 29 of the month at 24:00 UTC
  • Clouds: Scattered at 914 meters
  • Visibility: Greater than 10 km
  • Wind: 240 degrees at 5